createdAt,value
2023-01-19T00:02:02.557Z,101410.38
2023-01-19T00:04:12.501Z,101411.04
2023-01-19T00:06:22.873Z,101413.02
2023-01-19T00:08:32.796Z,101412.23
2023-01-19T00:10:42.919Z,101417.86
2023-01-19T00:12:52.906Z,101421.04
2023-01-19T00:15:03.328Z,101423.36
2023-01-19T00:17:13.066Z,101424.20
2023-01-19T00:19:23.057Z,101427.88
2023-01-19T00:21:33.050Z,101425.91
2023-01-19T00:23:43.263Z,101429.34
2023-01-19T00:25:53.858Z,101427.20
2023-01-19T00:28:04.026Z,101431.02
2023-01-19T00:30:15.759Z,101426.88
2023-01-19T00:32:25.586Z,101430.69
2023-01-19T00:34:40.270Z,101431.34
2023-01-19T00:36:49.977Z,101439.09
2023-01-19T00:39:00.238Z,101441.52
2023-01-19T00:41:10.726Z,101450.13
2023-01-19T00:43:20.816Z,101453.31
2023-01-19T00:45:30.808Z,101457.23
2023-01-19T00:47:40.988Z,101461.79
2023-01-19T00:49:51.416Z,101468.77
2023-01-19T00:52:01.510Z,101474.24
2023-01-19T00:54:11.596Z,101477.59
2023-01-19T00:56:21.836Z,101483.73
2023-01-19T00:58:31.578Z,101485.01
2023-01-19T01:00:42.170Z,101493.30
2023-01-19T01:02:53.370Z,101494.81
2023-01-19T01:05:03.880Z,101499.25
2023-01-19T01:07:14.441Z,101504.05
2023-01-19T01:09:24.986Z,101499.42
2023-01-19T01:11:35.594Z,101505.14
2023-01-19T01:13:45.628Z,101510.64
2023-01-19T01:15:56.178Z,101516.02
2023-01-19T01:18:05.907Z,101520.98
2023-01-19T01:20:18.687Z,101520.78
2023-01-19T01:22:29.496Z,101521.65
2023-01-19T01:24:40.058Z,101522.43
2023-01-19T01:26:50.610Z,101525.16
2023-01-19T01:29:00.481Z,101527.40
2023-01-19T01:31:10.624Z,101532.58
2023-01-19T01:33:40.519Z,101530.75
2023-01-19T01:35:52.607Z,101532.35
2023-01-19T01:38:04.104Z,101534.94
2023-01-19T01:40:18.683Z,101537.87
2023-01-19T01:42:32.315Z,101544.27
2023-01-19T01:44:54.776Z,101549.68
2023-01-19T01:47:05.449Z,101554.05
2023-01-19T01:49:18.936Z,101561.97
2023-01-19T01:51:32.769Z,101568.17
2023-01-19T01:53:43.907Z,101573.55
2023-01-19T01:55:54.306Z,101577.33
2023-01-19T01:58:08.478Z,101581.06
2023-01-19T02:00:19.718Z,101580.67
2023-01-19T02:02:53.007Z,101587.63
2023-01-19T02:05:07.366Z,101591.66
2023-01-19T02:07:39.549Z,101595.05
2023-01-19T02:10:06.919Z,101597.99
2023-01-19T02:12:35.178Z,101598.95
2023-01-19T02:14:45.335Z,101598.27
2023-01-19T02:16:55.512Z,101607.86
2023-01-19T02:19:05.536Z,101611.85
2023-01-19T02:21:20.510Z,101609.54
2023-01-19T02:23:43.305Z,101611.38
2023-01-19T02:25:54.771Z,101621.48
2023-01-19T02:28:05.937Z,101624.94
2023-01-19T02:30:18.884Z,101625.23
2023-01-19T02:32:29.467Z,101628.29
2023-01-19T02:34:39.765Z,101630.09
2023-01-19T02:36:54.565Z,101632.03
2023-01-19T02:39:05.981Z,101632.39
2023-01-19T02:41:19.276Z,101634.89
2023-01-19T02:43:30.687Z,101639.69
2023-01-19T02:45:41.552Z,101645.49
2023-01-19T02:47:53.816Z,101650.19
2023-01-19T02:50:05.023Z,101652.77
2023-01-19T02:52:19.994Z,101652.48
2023-01-19T02:54:50.505Z,101650.63
2023-01-19T02:57:19.926Z,101653.48
2023-01-19T02:59:41.086Z,101654.45
2023-01-19T03:02:09.533Z,101658.33
2023-01-19T03:04:30.097Z,101660.14
2023-01-19T03:06:51.548Z,101665.21
2023-01-19T03:09:05.187Z,101669.08
2023-01-19T03:11:16.590Z,101669.91
2023-01-19T03:13:33.855Z,101673.05
2023-01-19T03:15:50.049Z,101679.34
2023-01-19T03:18:03.296Z,101678.52
2023-01-19T03:20:17.721Z,101680.90
2023-01-19T03:22:31.326Z,101685.75
2023-01-19T03:24:45.019Z,101690.23
2023-01-19T03:26:59.886Z,101693.48
2023-01-19T03:29:13.486Z,101700.02
2023-01-19T03:31:26.506Z,101700.55
2023-01-19T03:33:39.525Z,101700.75
2023-01-19T03:35:55.186Z,101699.38
2023-01-19T03:38:09.068Z,101700.80
2023-01-19T03:40:20.027Z,101699.48
2023-01-19T03:42:31.547Z,101701.80
2023-01-19T03:44:44.217Z,101702.95
2023-01-19T03:46:54.676Z,101700.77
2023-01-19T03:49:05.174Z,101699.83
2023-01-19T03:51:16.017Z,101699.33
2023-01-19T03:53:26.171Z,101703.61
2023-01-19T03:55:36.507Z,101707.94
2023-01-19T03:57:46.447Z,101711.16
2023-01-19T03:59:56.475Z,101716.28
2023-01-19T04:02:06.554Z,101711.42
2023-01-19T04:04:16.818Z,101718.35
2023-01-19T04:06:27.527Z,101723.52
2023-01-19T04:08:37.326Z,101725.34
2023-01-19T04:10:47.407Z,101727.70
2023-01-19T04:13:03.696Z,101728.69
2023-01-19T04:15:14.142Z,101729.45
2023-01-19T04:17:24.009Z,101732.31
2023-01-19T04:19:34.566Z,101732.36
2023-01-19T04:21:44.661Z,101737.83
2023-01-19T04:23:55.126Z,101739.66
2023-01-19T04:26:06.630Z,101740.44
2023-01-19T04:28:17.386Z,101742.59
2023-01-19T04:30:27.936Z,101749.67
2023-01-19T04:32:38.049Z,101749.89
2023-01-19T04:34:48.046Z,101756.13
2023-01-19T04:36:57.744Z,101758.80
2023-01-19T04:39:09.536Z,101759.57
2023-01-19T04:41:19.436Z,101761.77
2023-01-19T04:43:29.238Z,101764.36
2023-01-19T04:45:39.790Z,101765.32
2023-01-19T04:47:50.569Z,101766.63
2023-01-19T04:50:00.393Z,101770.89
2023-01-19T04:52:10.469Z,101773.98
2023-01-19T04:54:20.801Z,101784.08
2023-01-19T04:56:31.650Z,101787.11
2023-01-19T04:58:41.625Z,101790.52
2023-01-19T05:00:52.647Z,101790.23
2023-01-19T05:03:03.119Z,101790.34
2023-01-19T05:05:14.215Z,101792.67
2023-01-19T05:07:25.907Z,101793.64
2023-01-19T05:09:35.868Z,101795.11
2023-01-19T05:11:45.825Z,101798.86
2023-01-19T05:13:55.975Z,101805.23
2023-01-19T05:16:07.171Z,101814.84
2023-01-19T05:18:16.747Z,101817.55
2023-01-19T05:20:26.607Z,101816.73
2023-01-19T05:22:36.599Z,101822.80
2023-01-19T05:24:46.994Z,101821.98
2023-01-19T05:26:56.956Z,101826.63
2023-01-19T05:29:06.870Z,101830.34
2023-01-19T05:31:18.653Z,101834.40
2023-01-19T05:33:29.539Z,101836.52
2023-01-19T05:35:39.286Z,101831.06
2023-01-19T05:37:49.268Z,101831.21
2023-01-19T05:39:59.997Z,101834.03
2023-01-19T05:42:10.465Z,101833.17
2023-01-19T05:44:20.856Z,101837.08
2023-01-19T05:46:31.052Z,101845.42
2023-01-19T05:48:40.865Z,101843.51
2023-01-19T05:50:50.779Z,101844.04
2023-01-19T05:53:00.854Z,101844.91
2023-01-19T05:55:14.018Z,101848.42
2023-01-19T05:57:25.245Z,101856.67
2023-01-19T05:59:35.760Z,101861.77
2023-01-19T06:01:46.223Z,101870.23
2023-01-19T06:03:56.448Z,101882.73
2023-01-19T06:06:07.395Z,101888.19
2023-01-19T06:08:17.360Z,101893.45
2023-01-19T06:10:27.199Z,101900.31
2023-01-19T06:12:38.076Z,101895.23
2023-01-19T06:14:48.266Z,101902.06
2023-01-19T06:16:58.305Z,101903.49
2023-01-19T06:19:08.442Z,101906.17
2023-01-19T06:21:18.995Z,101908.13
2023-01-19T06:23:29.247Z,101912.21
2023-01-19T06:25:39.087Z,101915.59
2023-01-19T06:27:52.010Z,101923.36
2023-01-19T06:30:01.958Z,101931.46
2023-01-19T06:32:12.289Z,101935.88
2023-01-19T06:34:22.128Z,101941.33
2023-01-19T06:36:31.979Z,101941.19
2023-01-19T06:38:42.127Z,101946.83
2023-01-19T06:40:58.934Z,101948.79
2023-01-19T06:43:09.985Z,101954.42
2023-01-19T06:45:20.806Z,101964.48
2023-01-19T06:47:30.931Z,101969.78
2023-01-19T06:49:41.306Z,101974.72
2023-01-19T06:51:51.357Z,101978.57
2023-01-19T06:54:01.689Z,101980.70
2023-01-19T06:56:12.931Z,101981.98
2023-01-19T06:58:23.346Z,101987.30
2023-01-19T07:00:33.709Z,101992.27
2023-01-19T07:02:45.251Z,101991.94
2023-01-19T07:04:55.015Z,101992.36
2023-01-19T07:07:04.938Z,101991.89
2023-01-19T07:09:16.858Z,101993.36
2023-01-19T07:11:32.799Z,101998.54
2023-01-19T07:13:45.307Z,102000.88
2023-01-19T07:15:55.583Z,101999.39
2023-01-19T07:18:08.156Z,102001.55
2023-01-19T07:20:15.985Z,102003.71
2023-01-19T07:22:25.886Z,102004.32
2023-01-19T07:24:36.396Z,102007.88
2023-01-19T07:26:46.247Z,102010.04
2023-01-19T07:28:56.350Z,102014.84
2023-01-19T07:31:06.952Z,102019.30
2023-01-19T07:33:17.311Z,102020.06
2023-01-19T07:35:27.865Z,102025.20
2023-01-19T07:37:38.220Z,102029.81
2023-01-19T07:39:48.452Z,102031.23
2023-01-19T07:41:58.928Z,102034.05
2023-01-19T07:44:09.297Z,102034.44
2023-01-19T07:46:19.151Z,102030.27
2023-01-19T07:48:29.073Z,102036.83
2023-01-19T07:50:39.049Z,102039.32
2023-01-19T07:52:51.207Z,102041.13
2023-01-19T07:55:00.828Z,102041.38
2023-01-19T07:57:11.156Z,102047.73
2023-01-19T07:59:21.392Z,102049.16
2023-01-19T08:01:31.974Z,102053.77
2023-01-19T08:03:43.126Z,102055.58
2023-01-19T08:05:57.522Z,102052.43
2023-01-19T08:08:08.157Z,102057.73
2023-01-19T08:10:19.256Z,102060.09
2023-01-19T08:12:29.175Z,102062.42
2023-01-19T08:14:39.485Z,102064.54
2023-01-19T08:16:50.285Z,102073.02
2023-01-19T08:19:00.111Z,102072.19
2023-01-19T08:21:10.292Z,102074.34
2023-01-19T08:23:20.696Z,102077.18
2023-01-19T08:25:34.075Z,102083.88
2023-01-19T08:27:44.087Z,102090.06
2023-01-19T08:29:54.846Z,102089.55
2023-01-19T08:32:05.627Z,102086.77
2023-01-19T08:34:15.668Z,102084.85
2023-01-19T08:36:25.787Z,102083.45
2023-01-19T08:38:40.125Z,102084.00
2023-01-19T08:40:50.536Z,102089.71
2023-01-19T08:43:08.521Z,102095.01
2023-01-19T08:45:18.529Z,102094.84
2023-01-19T08:47:28.582Z,102094.71
2023-01-19T08:49:38.436Z,102098.10
2023-01-19T08:51:49.429Z,102096.52
2023-01-19T08:53:59.347Z,102093.75
2023-01-19T08:56:13.135Z,102095.37
2023-01-19T08:58:22.986Z,102097.86
2023-01-19T09:00:34.027Z,102096.14
2023-01-19T09:02:44.219Z,102099.17
2023-01-19T09:04:54.115Z,102098.32
2023-01-19T09:09:18.916Z,102099.42
2023-01-19T09:11:29.165Z,102101.36
2023-01-19T09:13:39.017Z,102099.27
2023-01-19T09:15:49.197Z,102096.66
2023-01-19T09:18:00.027Z,102102.98
2023-01-19T09:20:13.147Z,102109.14
2023-01-19T09:22:23.505Z,102113.73
2023-01-19T09:24:35.607Z,102110.94
2023-01-19T09:26:45.886Z,102108.86
2023-01-19T09:28:56.216Z,102109.21
2023-01-19T09:31:09.432Z,102109.56
2023-01-19T09:33:20.717Z,102123.61
2023-01-19T09:35:31.988Z,102131.51
2023-01-19T09:37:42.346Z,102139.77
2023-01-19T09:39:52.559Z,102137.73
2023-01-19T09:42:13.025Z,102132.66
2023-01-19T09:44:34.817Z,102133.02
2023-01-19T09:46:45.566Z,102138.46
2023-01-19T09:48:57.231Z,102138.98
2023-01-19T09:51:13.276Z,102142.84
2023-01-19T09:53:30.503Z,102153.16
2023-01-19T09:55:41.777Z,102163.52
2023-01-19T09:57:51.809Z,102161.77
2023-01-19T10:00:01.849Z,102161.23
2023-01-19T10:02:35.499Z,102162.61
2023-01-19T10:04:53.101Z,102162.95
2023-01-19T10:07:22.396Z,102166.10
2023-01-19T10:09:40.055Z,102170.50
2023-01-19T10:11:54.317Z,102180.16
2023-01-19T10:14:06.071Z,102185.24
2023-01-19T10:16:32.367Z,102189.96
2023-01-19T10:18:48.741Z,102186.25
2023-01-19T10:21:05.548Z,102184.48
2023-01-19T10:23:41.603Z,102189.89
2023-01-19T10:25:51.800Z,102198.98
2023-01-19T10:28:03.162Z,102200.53
2023-01-19T10:30:23.574Z,102203.30
2023-01-19T10:32:36.353Z,102211.86
2023-01-19T10:34:44.207Z,102218.65
2023-01-19T10:36:57.622Z,102228.98
2023-01-19T10:39:09.932Z,102231.58
2023-01-19T10:41:26.468Z,102231.91
2023-01-19T10:43:43.825Z,102237.70
2023-01-19T10:45:54.637Z,102240.33
2023-01-19T10:48:09.375Z,102243.83
2023-01-19T10:50:30.056Z,102250.13
2023-01-19T10:52:45.088Z,102253.27
2023-01-19T10:54:56.342Z,102254.48
2023-01-19T10:57:10.289Z,102261.13
2023-01-19T10:59:35.654Z,102262.86
2023-01-19T11:01:45.536Z,102268.48
2023-01-19T11:03:57.702Z,102272.00
2023-01-19T11:06:24.137Z,102272.90
2023-01-19T11:08:35.056Z,102274.68
2023-01-19T11:10:54.345Z,102268.02
2023-01-19T11:13:07.935Z,102265.21
2023-01-19T11:15:25.844Z,102260.66
2023-01-19T11:17:36.568Z,102262.43
2023-01-19T11:19:54.450Z,102265.10
2023-01-19T11:22:22.249Z,102269.55
2023-01-19T11:24:34.256Z,102273.65
2023-01-19T11:26:48.325Z,102279.15
2023-01-19T11:28:59.918Z,102284.11
2023-01-19T11:31:33.351Z,102288.02
2023-01-19T11:33:50.939Z,102293.13
2023-01-19T11:36:09.867Z,102287.52
2023-01-19T11:38:27.672Z,102288.73
2023-01-19T11:40:38.255Z,102294.36
2023-01-19T11:42:48.381Z,102293.48
2023-01-19T11:45:04.946Z,102296.65
2023-01-19T11:47:21.015Z,102296.84
2023-01-19T11:49:41.222Z,102301.27
2023-01-19T11:51:58.250Z,102304.23
2023-01-19T11:54:32.488Z,102305.45
2023-01-19T11:56:42.581Z,102307.90
2023-01-19T11:58:52.948Z,102314.06
2023-01-19T12:01:08.528Z,102318.29
2023-01-19T12:03:24.576Z,102319.89
2023-01-19T12:05:37.734Z,102318.66
2023-01-19T12:07:49.841Z,102323.58
2023-01-19T12:10:05.941Z,102321.84
2023-01-19T12:12:26.230Z,102327.82
2023-01-19T12:14:43.216Z,102331.86
2023-01-19T12:16:55.322Z,102340.13
2023-01-19T12:19:08.585Z,102341.75
2023-01-19T12:21:19.553Z,102343.35
2023-01-19T12:23:37.567Z,102343.01
2023-01-19T12:25:55.465Z,102347.73
2023-01-19T12:28:07.247Z,102346.46
2023-01-19T12:30:23.618Z,102350.14
2023-01-19T12:32:39.356Z,102356.44
2023-01-19T12:34:50.527Z,102357.29
2023-01-19T12:37:04.470Z,102360.61
2023-01-19T12:39:21.747Z,102363.42
2023-01-19T12:41:34.322Z,102365.37
2023-01-19T12:43:44.558Z,102366.95
2023-01-19T12:45:54.595Z,102370.46
2023-01-19T12:48:05.836Z,102370.63
2023-01-19T12:50:23.807Z,102376.09
2023-01-19T12:52:42.006Z,102372.72
2023-01-19T12:55:03.879Z,102379.02
2023-01-19T12:57:26.925Z,102382.34
2023-01-19T12:59:39.247Z,102383.39
2023-01-19T13:02:25.892Z,102387.60
2023-01-19T13:04:36.589Z,102393.75
2023-01-19T13:07:18.519Z,102398.85
2023-01-19T13:09:35.905Z,102403.08
2023-01-19T13:12:21.364Z,102409.41
2023-01-19T13:14:39.106Z,102420.16
2023-01-19T13:17:20.793Z,102423.34
2023-01-19T13:19:53.470Z,102428.79
2023-01-19T13:22:23.375Z,102434.96
2023-01-19T13:25:09.678Z,102437.27
2023-01-19T13:27:19.456Z,102435.72
2023-01-19T13:29:34.396Z,102436.95
2023-01-19T13:31:46.502Z,102442.39
2023-01-19T13:33:58.394Z,102438.88
2023-01-19T13:36:17.447Z,102438.00
2023-01-19T13:38:29.671Z,102441.52
2023-01-19T13:40:42.036Z,102445.55
2023-01-19T13:42:53.726Z,102443.60
2023-01-19T13:45:08.037Z,102445.70
2023-01-19T13:47:24.333Z,102449.89
2023-01-19T13:49:37.707Z,102448.81
2023-01-19T13:51:49.569Z,102445.83
2023-01-19T13:54:01.995Z,102447.93
2023-01-19T13:56:21.032Z,102444.05
2023-01-19T13:58:32.551Z,102448.11
2023-01-19T14:00:47.450Z,102449.16
2023-01-19T14:03:00.656Z,102447.23
2023-01-19T14:05:23.336Z,102447.48
2023-01-19T14:07:33.807Z,102450.30
2023-01-19T14:09:44.074Z,102455.22
2023-01-19T14:12:13.350Z,102460.52
2023-01-19T14:14:33.504Z,102453.89
2023-01-19T14:16:43.715Z,102460.73
2023-01-19T14:19:05.178Z,102465.16
2023-01-19T14:21:16.656Z,102466.23
2023-01-19T14:23:48.897Z,102469.58
2023-01-19T14:25:59.207Z,102471.33
2023-01-19T14:28:39.215Z,102476.42
2023-01-19T14:30:59.462Z,102472.58
2023-01-19T14:33:14.995Z,102473.67
2023-01-19T14:35:30.506Z,102474.39
2023-01-19T14:37:47.665Z,102477.91
2023-01-19T14:40:01.329Z,102483.02
2023-01-19T14:42:17.590Z,102485.31
2023-01-19T14:44:33.110Z,102490.08
2023-01-19T14:46:49.962Z,102492.36
2023-01-19T14:49:04.787Z,102493.40
2023-01-19T14:51:21.865Z,102490.41
2023-01-19T14:53:38.008Z,102496.03
2023-01-19T14:55:52.120Z,102502.36
2023-01-19T14:58:01.697Z,102502.19
2023-01-19T15:00:22.193Z,102504.83
2023-01-19T15:02:32.082Z,102512.36
2023-01-19T15:04:42.135Z,102515.54
2023-01-19T15:06:52.376Z,102519.75
2023-01-19T15:09:02.235Z,102521.88
2023-01-19T15:11:14.956Z,102526.27
2023-01-19T15:13:26.336Z,102528.21
2023-01-19T15:15:37.307Z,102528.91
2023-01-19T15:17:47.344Z,102532.27
2023-01-19T15:19:58.162Z,102535.80
2023-01-19T15:22:15.526Z,102542.82
2023-01-19T15:24:26.066Z,102538.80
2023-01-19T15:26:35.956Z,102543.55
2023-01-19T15:28:45.591Z,102545.14
2023-01-19T15:30:55.894Z,102552.86
2023-01-19T15:33:05.908Z,102554.63
2023-01-19T15:35:21.126Z,102559.36
2023-01-19T15:37:31.147Z,102560.59
2023-01-19T15:39:41.416Z,102561.83
2023-01-19T15:41:51.926Z,102567.95
2023-01-19T15:44:02.276Z,102569.00
2023-01-19T15:46:16.262Z,102568.12
2023-01-19T15:48:26.200Z,102571.63
2023-01-19T15:50:37.705Z,102573.90
2023-01-19T15:52:47.696Z,102577.73
2023-01-19T15:54:57.849Z,102578.79
2023-01-19T15:57:07.807Z,102580.54
2023-01-19T15:59:18.247Z,102583.15
2023-01-19T16:01:31.830Z,102585.59
2023-01-19T16:03:42.739Z,102590.33
2023-01-19T16:05:53.343Z,102589.27
2023-01-19T16:08:03.356Z,102586.79
2023-01-19T16:10:14.025Z,102587.66
2023-01-19T16:12:24.008Z,102593.26
2023-01-19T16:14:34.225Z,102596.76
2023-01-19T16:16:46.664Z,102594.99
2023-01-19T16:18:56.925Z,102595.67
2023-01-19T16:21:07.955Z,102600.58
2023-01-19T16:23:18.493Z,102604.06
2023-01-19T16:25:31.907Z,102607.73
2023-01-19T16:27:41.988Z,102609.98
2023-01-19T16:29:52.556Z,102613.48
2023-01-19T16:32:03.692Z,102613.83
2023-01-19T16:34:14.176Z,102619.60
2023-01-19T16:36:30.925Z,102627.64
2023-01-19T16:38:41.119Z,102627.10
2023-01-19T16:40:51.090Z,102631.28
2023-01-19T16:43:01.964Z,102637.40
2023-01-19T16:45:13.335Z,102642.11
2023-01-19T16:47:23.655Z,102643.13
2023-01-19T16:49:33.516Z,102648.19
2023-01-19T16:51:44.176Z,102651.83
2023-01-19T16:53:54.962Z,102647.94
2023-01-19T16:56:08.994Z,102648.77
2023-01-19T16:58:19.074Z,102649.13
2023-01-19T17:00:29.130Z,102648.20
2023-01-19T17:02:43.100Z,102649.23
2023-01-19T17:04:53.216Z,102649.94
2023-01-19T17:07:03.135Z,102649.38
2023-01-19T17:09:13.309Z,102649.00
2023-01-19T17:11:24.927Z,102650.39
2023-01-19T17:13:35.117Z,102651.59
2023-01-19T17:15:45.106Z,102655.06
2023-01-19T17:17:54.935Z,102661.90
2023-01-19T17:20:05.203Z,102664.30
2023-01-19T17:22:15.521Z,102670.40
2023-01-19T17:24:25.696Z,102673.16
2023-01-19T17:26:36.195Z,102675.23
2023-01-19T17:28:47.197Z,102670.59
2023-01-19T17:30:57.227Z,102671.10
2023-01-19T17:33:07.227Z,102675.80
2023-01-19T17:35:17.403Z,102677.02
2023-01-19T17:37:27.439Z,102680.64
2023-01-19T17:39:38.288Z,102682.20
2023-01-19T17:41:50.241Z,102688.13
2023-01-19T17:44:01.487Z,102691.61
2023-01-19T17:46:11.842Z,102694.04
2023-01-19T17:48:21.839Z,102699.98
2023-01-19T17:50:32.028Z,102703.46
2023-01-19T17:52:41.966Z,102706.92
2023-01-19T17:54:51.796Z,102705.46
2023-01-19T17:57:01.453Z,102705.77
2023-01-19T17:59:11.822Z,102709.94
2023-01-19T18:01:23.536Z,102711.61
2023-01-19T18:03:33.266Z,102710.70
2023-01-19T18:05:43.116Z,102714.48
2023-01-19T18:07:53.108Z,102715.30
2023-01-19T18:10:02.769Z,102717.89
2023-01-19T18:12:12.934Z,102723.27
2023-01-19T18:14:22.809Z,102727.45
2023-01-19T18:16:33.565Z,102728.59
2023-01-19T18:18:44.533Z,102729.39
2023-01-19T18:20:54.660Z,102731.23
2023-01-19T18:23:04.428Z,102736.93
2023-01-19T18:25:14.956Z,102743.67
2023-01-19T18:27:25.557Z,102750.24
2023-01-19T18:29:36.095Z,102753.09
2023-01-19T18:31:46.053Z,102759.27
2023-01-19T18:33:56.482Z,102766.92
2023-01-19T18:36:09.603Z,102766.25
2023-01-19T18:38:19.765Z,102770.68
2023-01-19T18:40:30.435Z,102771.08
2023-01-19T18:42:40.865Z,102772.72
2023-01-19T18:44:51.470Z,102770.65
2023-01-19T18:47:01.695Z,102769.29
2023-01-19T18:49:12.088Z,102771.77
2023-01-19T18:51:22.369Z,102775.14
2023-01-19T18:53:32.857Z,102777.14
2023-01-19T18:55:52.048Z,102780.73
2023-01-19T18:58:02.101Z,102783.59
2023-01-19T19:00:15.089Z,102786.66
2023-01-19T19:02:25.638Z,102784.45
2023-01-19T19:04:35.665Z,102782.04
2023-01-19T19:06:45.625Z,102780.55
2023-01-19T19:08:56.528Z,102782.40
2023-01-19T19:11:08.845Z,102778.61
2023-01-19T19:13:18.131Z,102771.65
2023-01-19T19:15:28.699Z,102775.97
2023-01-19T19:17:40.476Z,102778.85
2023-01-19T19:19:50.665Z,102775.16
2023-01-19T19:22:03.693Z,102774.64
2023-01-19T19:24:16.382Z,102776.10
2023-01-19T19:26:28.413Z,102781.30
2023-01-19T19:28:39.858Z,102781.02
2023-01-19T19:30:52.910Z,102776.86
2023-01-19T19:33:02.731Z,102778.59
2023-01-19T19:35:15.938Z,102782.11
2023-01-19T19:37:26.266Z,102776.16
2023-01-19T19:39:38.697Z,102775.52
2023-01-19T19:41:49.295Z,102783.60
2023-01-19T19:43:59.259Z,102787.73
2023-01-19T19:46:11.141Z,102785.52
2023-01-19T19:48:21.047Z,102786.33
2023-01-19T19:50:31.378Z,102789.02
2023-01-19T19:52:45.022Z,102797.23
2023-01-19T19:54:56.759Z,102797.08
2023-01-19T19:57:06.615Z,102794.99
2023-01-19T19:59:16.417Z,102799.10
2023-01-19T20:01:32.359Z,102798.48
2023-01-19T20:03:43.767Z,102797.61
2023-01-19T20:05:53.615Z,102791.31
2023-01-19T20:08:03.246Z,102791.23
2023-01-19T20:10:14.881Z,102790.83
2023-01-19T20:12:25.286Z,102791.11
2023-01-19T20:14:36.132Z,102789.66
2023-01-19T20:16:46.544Z,102788.39
2023-01-19T20:18:56.853Z,102788.24
2023-01-19T20:21:16.915Z,102786.12
2023-01-19T20:23:27.536Z,102788.58
2023-01-19T20:25:40.516Z,102791.98
2023-01-19T20:27:50.716Z,102793.25
2023-01-19T20:30:00.833Z,102795.30
2023-01-19T20:32:11.165Z,102796.38
2023-01-19T20:34:23.904Z,102798.86
2023-01-19T20:36:34.208Z,102795.13
2023-01-19T20:38:45.257Z,102792.46
2023-01-19T20:40:55.235Z,102792.23
2023-01-19T20:43:06.456Z,102795.70
2023-01-19T20:45:16.507Z,102794.39
2023-01-19T20:47:27.009Z,102795.59
2023-01-19T20:49:37.615Z,102797.84
2023-01-19T20:51:47.618Z,102796.06
2023-01-19T20:53:57.666Z,102798.77
2023-01-19T20:56:10.675Z,102800.56
2023-01-19T20:58:20.667Z,102799.54
2023-01-19T21:00:30.657Z,102795.87
2023-01-19T21:02:40.823Z,102797.08
2023-01-19T21:04:51.685Z,102793.66
2023-01-19T21:07:01.366Z,102795.73
2023-01-19T21:09:12.376Z,102795.13
2023-01-19T21:11:24.315Z,102790.43
2023-01-19T21:13:34.955Z,102781.88
2023-01-19T21:15:45.038Z,102783.77
2023-01-19T21:17:55.585Z,102781.39
2023-01-19T21:20:05.945Z,102783.66
2023-01-19T21:22:15.806Z,102781.86
2023-01-19T21:24:26.245Z,102786.29
2023-01-19T21:26:36.595Z,102789.08
2023-01-19T21:28:46.540Z,102788.77
2023-01-19T21:30:57.506Z,102790.07
2023-01-19T21:33:08.346Z,102788.34
2023-01-19T21:35:18.445Z,102794.18
2023-01-19T21:37:30.824Z,102797.14
2023-01-19T21:39:40.984Z,102801.46
2023-01-19T21:41:51.646Z,102804.46
2023-01-19T21:44:01.777Z,102805.13
2023-01-19T21:46:15.647Z,102805.67
2023-01-19T21:48:26.198Z,102807.01
2023-01-19T21:50:36.365Z,102804.89
2023-01-19T21:52:46.382Z,102803.55
2023-01-19T21:54:56.250Z,102806.41
2023-01-19T21:57:06.476Z,102808.35
2023-01-19T21:59:19.691Z,102807.09
2023-01-19T22:01:30.401Z,102810.08
2023-01-19T22:03:40.510Z,102808.80
2023-01-19T22:05:50.587Z,102810.37
2023-01-19T22:08:01.616Z,102813.56
2023-01-19T22:10:14.116Z,102817.64
2023-01-19T22:12:21.640Z,102818.48
2023-01-19T22:14:32.079Z,102817.49
2023-01-19T22:16:42.122Z,102822.66
2023-01-19T22:18:55.076Z,102820.82
2023-01-19T22:21:13.640Z,102822.22
2023-01-19T22:23:23.471Z,102821.38
2023-01-19T22:25:34.457Z,102828.91
2023-01-19T22:27:44.446Z,102823.73
2023-01-19T22:29:55.037Z,102824.33
2023-01-19T22:32:04.926Z,102821.00
2023-01-19T22:34:17.699Z,102823.70
2023-01-19T22:36:29.767Z,102827.63
2023-01-19T22:38:40.261Z,102828.15
2023-01-19T22:40:50.520Z,102832.19
2023-01-19T22:43:00.358Z,102828.27
2023-01-19T22:45:12.204Z,102828.90
2023-01-19T22:47:22.355Z,102829.44
2023-01-19T22:49:33.087Z,102831.77
2023-01-19T22:51:43.346Z,102830.60
2023-01-19T22:53:53.473Z,102825.05
2023-01-19T22:56:11.366Z,102827.45
2023-01-19T22:58:22.175Z,102830.31
2023-01-19T23:00:32.157Z,102829.45
2023-01-19T23:02:42.266Z,102831.27
2023-01-19T23:04:52.237Z,102830.10
2023-01-19T23:07:02.182Z,102827.41
2023-01-19T23:09:16.253Z,102828.30
2023-01-19T23:11:28.175Z,102834.52
2023-01-19T23:13:38.095Z,102835.26
2023-01-19T23:15:48.216Z,102833.57
2023-01-19T23:17:58.376Z,102840.95
2023-01-19T23:20:10.174Z,102842.68
2023-01-19T23:22:20.414Z,102845.27
2023-01-19T23:24:31.117Z,102843.27
2023-01-19T23:26:41.343Z,102847.45
2023-01-19T23:28:55.145Z,102847.55
2023-01-19T23:31:14.209Z,102845.88
2023-01-19T23:33:24.812Z,102848.95
2023-01-19T23:35:36.080Z,102854.71
2023-01-19T23:37:46.123Z,102853.90
2023-01-19T23:39:56.099Z,102858.49
2023-01-19T23:42:08.640Z,102861.02
2023-01-19T23:44:19.023Z,102864.27
2023-01-19T23:46:29.000Z,102868.30
2023-01-19T23:48:39.776Z,102869.88
2023-01-19T23:50:50.080Z,102873.90
2023-01-19T23:53:00.114Z,102881.39
2023-01-19T23:55:12.079Z,102882.52
2023-01-19T23:57:22.606Z,102885.28
2023-01-19T23:59:32.523Z,102885.94
